CheckWX is a tool to help pilots better visualize weather data.  It is not intended as a substitute for an official pre-flight weather briefing.

14:44:38 UTC

CYKG METAR
Kangiqsujuaq (Wakeham Bay) Airport
Kangiqsujuaq, Canada
Current

45 mins ago

CYKG 111400Z 27023G33KT 4SM -SN DRSN FEW018 BKN022 OVC030 M14/M18 A2933 RMK SC2SC3SC3 SLP952
Observed
Dec-11 @ 14:00 UTC
Wind
  • 270° at 23 KTS
  • Gusting to 33 KTS
Visibility
4 SM
Flight Rules
MVFR
Conditions
Light Snow, Low drifting Snow
Cloud Levels
  • Few at 1,800' AGL
  • Broken at 2,200' AGL
  • Overcast at 3,000' AGL
Temperature
-14°C / 7°F
Dewpoint
-18°C / -0°F
Humidity
72%
Altimeter
29.33" Hg
Pressure
993.22 hPa
Previous

17 hours ago

CYKG 102200Z 29012KT 15SM BKN140 M19/M25 A2946 RMK AS7 SNW CVR/HARD PACK/LAST STFD OBS/NXT OBS 111300 UTC SLP998
Observed
Dec-10 @ 22:00 UTC
Wind
  • 290° at 12 KTS
Visibility
15 SM
Flight Rules
VFR
Cloud Levels
  • Broken at 14,000' AGL
Temperature
-19°C / -2°F
Dewpoint
-25°C / -13°F
Humidity
59%
Altimeter
29.46" Hg
Pressure
997.62 hPa
Previous

18 hours ago

CYKG 102100Z 29006KT 15SM BKN140 OVC200 M19/M26 A2947 RMK AS7CI1 SLP002
Observed
Dec-10 @ 21:00 UTC
Wind
  • 290° at 6 KTS
Visibility
15 SM
Flight Rules
VFR
Cloud Levels
  • Broken at 14,000' AGL
  • Overcast at 20,000' AGL
Temperature
-19°C / -2°F
Dewpoint
-26°C / -15°F
Humidity
54%
Altimeter
29.47" Hg
Pressure
998.02 hPa